Time,TemperatureF,DewpointF,PressureIn,WindDirection,WindDirectionDegrees,WindSpeedMPH,WindSpeedGustMPH,Humidity,HourlyPrecipIn,Conditions,Clouds,dailyrainin,SolarRadiationWatts/m^2,SoftwareType,DateUTC
2013-01-10 00:11:00,28.0,21.0,-100.00,WNW,303,15.0,24.0,75,0.00,,,0.00,0.000000,,2013-01-10 08:11:00,
2013-01-10 00:22:00,28.0,21.0,-100.00,WNW,303,15.0,24.0,75,0.00,,,0.00,0.000000,,2013-01-10 08:22:00,
2013-01-10 00:32:00,28.0,21.0,-100.00,WNW,303,15.0,24.0,75,0.00,,,0.00,0.000000,,2013-01-10 08:32:00,
2013-01-10 00:42:00,28.0,21.0,-100.00,WNW,303,15.0,24.0,75,0.00,,,0.00,0.000000,,2013-01-10 08:42:00,
2013-01-10 01:12:00,28.0,23.0,-100.00,NW,318,10.0,18.0,80,0.00,,,0.00,0.000000,,2013-01-10 09:12:00,
2013-01-10 01:22:00,28.0,23.0,-100.00,NW,318,10.0,18.0,80,0.00,,,0.00,0.000000,,2013-01-10 09:22:00,
2013-01-10 01:32:00,28.0,23.0,-100.00,NW,318,10.0,18.0,80,0.00,,,0.00,0.000000,,2013-01-10 09:32:00,
2013-01-10 01:42:00,28.0,23.0,-100.00,NW,318,10.0,18.0,80,0.00,,,0.00,0.000000,,2013-01-10 09:42:00,
2013-01-10 02:12:00,29.0,22.0,-100.00,WNW,300,14.0,18.0,76,0.00,,,0.00,0.000000,,2013-01-10 10:12:00,
2013-01-10 02:22:00,29.0,22.0,-100.00,WNW,300,14.0,18.0,76,0.00,,,0.00,0.000000,,2013-01-10 10:22:00,
2013-01-10 02:32:00,29.0,22.0,-100.00,WNW,300,14.0,18.0,76,0.00,,,0.00,0.000000,,2013-01-10 10:32:00,
2013-01-10 02:42:00,29.0,22.0,-100.00,WNW,300,14.0,18.0,76,0.00,,,0.00,0.000000,,2013-01-10 10:42:00,
2013-01-10 03:12:00,29.0,22.0,-100.00,NW,310,13.0,17.0,76,0.00,,,0.00,0.000000,,2013-01-10 11:12:00,
2013-01-10 03:22:00,29.0,22.0,-100.00,NW,310,13.0,17.0,76,0.00,,,0.00,0.000000,,2013-01-10 11:22:00,
2013-01-10 03:32:00,29.0,22.0,-100.00,NW,310,13.0,17.0,76,0.00,,,0.00,0.000000,,2013-01-10 11:32:00,
2013-01-10 03:42:00,29.0,22.0,-100.00,NW,310,13.0,17.0,76,0.00,,,0.00,0.000000,,2013-01-10 11:42:00,
2013-01-10 04:12:00,25.0,19.0,-100.00,NW,326,9.0,16.0,78,0.00,,,0.00,0.000000,,2013-01-10 12:12:00,
2013-01-10 04:22:00,25.0,19.0,-100.00,NW,326,9.0,16.0,78,0.00,,,0.00,0.000000,,2013-01-10 12:22:00,
2013-01-10 04:32:00,25.0,19.0,-100.00,NW,326,9.0,16.0,78,0.00,,,0.00,0.000000,,2013-01-10 12:32:00,
2013-01-10 04:42:00,25.0,19.0,-100.00,NW,326,9.0,16.0,78,0.00,,,0.00,0.000000,,2013-01-10 12:42:00,
2013-01-10 06:22:00,27.0,19.0,-100.00,NW,315,5.0,10.0,72,-99.99,,,0.00,0.000000,,2013-01-10 14:22:00,
2013-01-10 06:32:00,27.0,19.0,-100.00,NW,315,5.0,10.0,72,-99.99,,,0.00,0.000000,,2013-01-10 14:32:00,
2013-01-10 06:43:00,27.0,19.0,-100.00,NW,315,5.0,10.0,72,-99.99,,,0.00,0.000000,,2013-01-10 14:43:00,
2013-01-10 07:12:00,22.0,16.0,-100.00,NNE,20,8.0,10.0,78,0.00,,,0.00,0.000000,,2013-01-10 15:12:00,
2013-01-10 07:22:00,22.0,16.0,-100.00,NNE,20,8.0,10.0,78,0.00,,,0.00,0.000000,,2013-01-10 15:22:00,
2013-01-10 07:32:00,22.0,16.0,-100.00,NNE,20,8.0,10.0,78,0.00,,,0.00,0.000000,,2013-01-10 15:32:00,
2013-01-10 07:43:00,22.0,16.0,-100.00,NNE,20,8.0,10.0,78,0.00,,,0.00,0.000000,,2013-01-10 15:43:00,
2013-01-10 08:12:00,25.0,22.0,-100.00,North,1,6.0,11.0,89,0.00,,,0.00,0.000000,,2013-01-10 16:12:00,
2013-01-10 08:22:00,25.0,22.0,-100.00,North,1,6.0,11.0,89,0.00,,,0.00,0.000000,,2013-01-10 16:22:00,
2013-01-10 08:33:00,25.0,22.0,-100.00,North,1,6.0,11.0,89,0.00,,,0.00,0.000000,,2013-01-10 16:33:00,
2013-01-10 08:42:00,25.0,22.0,-100.00,North,1,6.0,11.0,89,0.00,,,0.00,0.000000,,2013-01-10 16:42:00,
2013-01-10 09:12:00,26.0,23.0,-100.00,North,7,6.0,9.0,88,0.00,,,0.00,2.000000,,2013-01-10 17:12:00,
2013-01-10 09:22:00,26.0,23.0,-100.00,North,7,6.0,9.0,88,0.00,,,0.00,2.000000,,2013-01-10 17:22:00,
2013-01-10 09:33:00,26.0,23.0,-100.00,North,7,6.0,9.0,88,0.00,,,0.00,2.000000,,2013-01-10 17:33:00,
2013-01-10 09:42:00,26.0,23.0,-100.00,North,7,6.0,9.0,88,0.00,,,0.00,2.000000,,2013-01-10 17:42:00,
2013-01-10 10:12:00,28.0,22.0,-100.00,NNE,19,5.0,8.0,79,0.00,,,0.00,64.000000,,2013-01-10 18:12:00,
2013-01-10 10:22:00,28.0,22.0,-100.00,NNE,19,5.0,8.0,79,0.00,,,0.00,64.000000,,2013-01-10 18:22:00,
2013-01-10 10:33:00,28.0,22.0,-100.00,NNE,19,5.0,8.0,79,0.00,,,0.00,64.000000,,2013-01-10 18:33:00,
2013-01-10 10:43:00,28.0,22.0,-100.00,NNE,19,5.0,8.0,79,0.00,,,0.00,64.000000,,2013-01-10 18:43:00,
2013-01-10 11:12:00,28.0,22.0,-100.00,SSW,206,7.0,11.0,77,0.00,,,0.00,145.000000,,2013-01-10 19:12:00,
2013-01-10 11:23:00,28.0,22.0,-100.00,SSW,206,7.0,11.0,77,0.00,,,0.00,145.000000,,2013-01-10 19:23:00,
2013-01-10 11:32:00,28.0,22.0,-100.00,SSW,206,7.0,11.0,77,0.00,,,0.00,145.000000,,2013-01-10 19:32:00,
2013-01-10 11:42:00,28.0,22.0,-100.00,SSW,206,7.0,11.0,77,0.00,,,0.00,145.000000,,2013-01-10 19:42:00,
2013-01-10 12:12:00,28.0,20.0,-100.00,NNE,25,10.0,14.0,73,0.00,,,0.00,325.000000,,2013-01-10 20:12:00,
2013-01-10 12:22:00,28.0,20.0,-100.00,NNE,25,10.0,14.0,73,0.00,,,0.00,325.000000,,2013-01-10 20:22:00,
2013-01-10 12:32:00,28.0,20.0,-100.00,NNE,25,10.0,14.0,73,0.00,,,0.00,325.000000,,2013-01-10 20:32:00,
2013-01-10 12:42:00,28.0,20.0,-100.00,NNE,25,10.0,14.0,73,0.00,,,0.00,325.000000,,2013-01-10 20:42:00,
2013-01-10 13:12:00,29.0,20.0,-100.00,NNE,33,10.0,17.0,70,0.00,,,0.00,345.000000,,2013-01-10 21:12:00,
2013-01-10 13:23:00,29.0,20.0,-100.00,NNE,33,10.0,17.0,70,0.00,,,0.00,345.000000,,2013-01-10 21:23:00,
2013-01-10 13:33:00,29.0,20.0,-100.00,NNE,33,10.0,17.0,70,0.00,,,0.00,345.000000,,2013-01-10 21:33:00,
2013-01-10 13:42:00,29.0,20.0,-100.00,NNE,33,10.0,17.0,70,0.00,,,0.00,345.000000,,2013-01-10 21:42:00,
2013-01-10 14:12:00,27.0,19.0,-100.00,NNE,30,14.0,17.0,71,0.00,,,0.00,309.000000,,2013-01-10 22:12:00,
2013-01-10 14:32:00,27.0,19.0,-100.00,NNE,30,14.0,17.0,71,0.00,,,0.00,309.000000,,2013-01-10 22:32:00,
2013-01-10 14:42:00,27.0,19.0,-100.00,NNE,30,14.0,17.0,71,0.00,,,0.00,309.000000,,2013-01-10 22:42:00,
2013-01-10 15:12:00,26.0,18.0,-100.00,NE,34,11.0,18.0,72,0.00,,,0.00,226.000000,,2013-01-10 23:12:00,
2013-01-10 15:22:00,26.0,18.0,-100.00,NE,34,11.0,18.0,72,0.00,,,0.00,226.000000,,2013-01-10 23:22:00,
2013-01-10 15:32:00,26.0,18.0,-100.00,NE,34,11.0,18.0,72,0.00,,,0.00,226.000000,,2013-01-10 23:32:00,
2013-01-10 15:42:00,26.0,18.0,-100.00,NE,34,11.0,18.0,72,0.00,,,0.00,226.000000,,2013-01-10 23:42:00,
2013-01-10 16:12:00,24.0,16.0,-100.00,NNE,26,14.0,21.0,71,0.00,,,0.00,98.000000,,2013-01-11 00:12:00,
2013-01-10 16:32:00,24.0,16.0,-100.00,NNE,26,14.0,21.0,71,0.00,,,0.00,98.000000,,2013-01-11 00:32:00,
2013-01-10 16:42:00,24.0,16.0,-100.00,NNE,26,14.0,21.0,71,0.00,,,0.00,98.000000,,2013-01-11 00:42:00,
2013-01-10 17:12:00,20.0,13.0,-100.00,NNE,28,13.0,19.0,74,0.00,,,0.00,1.000000,,2013-01-11 01:12:00,
2013-01-10 17:22:00,20.0,13.0,-100.00,NNE,28,13.0,19.0,74,0.00,,,0.00,1.000000,,2013-01-11 01:22:00,
2013-01-10 17:33:00,20.0,13.0,-100.00,NNE,28,13.0,19.0,74,0.00,,,0.00,1.000000,,2013-01-11 01:33:00,
2013-01-10 17:42:00,20.0,13.0,-100.00,NNE,28,13.0,19.0,74,0.00,,,0.00,1.000000,,2013-01-11 01:42:00,
2013-01-10 18:12:00,20.0,13.0,-100.00,NNE,29,15.0,19.0,73,0.00,,,0.00,0.000000,,2013-01-11 02:12:00,
2013-01-10 18:22:00,20.0,13.0,-100.00,NNE,29,15.0,19.0,73,0.00,,,0.00,0.000000,,2013-01-11 02:22:00,
2013-01-10 18:32:00,20.0,13.0,-100.00,NNE,29,15.0,19.0,73,0.00,,,0.00,0.000000,,2013-01-11 02:32:00,
2013-01-10 18:42:00,20.0,13.0,-100.00,NNE,29,15.0,19.0,73,0.00,,,0.00,0.000000,,2013-01-11 02:42:00,
2013-01-10 19:12:00,19.0,12.0,-100.00,NNE,31,15.0,22.0,74,0.00,,,0.00,0.000000,,2013-01-11 03:12:00,
2013-01-10 19:22:00,19.0,12.0,-100.00,NNE,31,15.0,22.0,74,0.00,,,0.00,0.000000,,2013-01-11 03:22:00,
2013-01-10 19:33:00,19.0,12.0,-100.00,NNE,31,15.0,22.0,74,0.00,,,0.00,0.000000,,2013-01-11 03:33:00,
2013-01-10 19:42:00,19.0,12.0,-100.00,NNE,31,15.0,22.0,74,0.00,,,0.00,0.000000,,2013-01-11 03:42:00,
2013-01-10 20:12:00,19.0,12.0,-100.00,NNE,26,17.0,23.0,73,0.00,,,0.00,0.000000,,2013-01-11 04:12:00,
2013-01-10 20:22:00,19.0,12.0,-100.00,NNE,26,17.0,23.0,73,0.00,,,0.00,0.000000,,2013-01-11 04:22:00,
2013-01-10 20:32:00,19.0,12.0,-100.00,NNE,26,17.0,23.0,73,0.00,,,0.00,0.000000,,2013-01-11 04:32:00,
2013-01-10 20:42:00,19.0,12.0,-100.00,NNE,26,17.0,23.0,73,0.00,,,0.00,0.000000,,2013-01-11 04:42:00,
2013-01-10 21:12:00,19.0,11.0,-100.00,NNE,23,16.0,20.0,70,0.00,,,0.00,0.000000,,2013-01-11 05:12:00,
2013-01-10 21:22:00,19.0,11.0,-100.00,NNE,23,16.0,20.0,70,0.00,,,0.00,0.000000,,2013-01-11 05:22:00,
2013-01-10 21:33:00,19.0,11.0,-100.00,NNE,23,16.0,20.0,70,0.00,,,0.00,0.000000,,2013-01-11 05:33:00,
2013-01-10 21:42:00,19.0,11.0,-100.00,NNE,23,16.0,20.0,70,0.00,,,0.00,0.000000,,2013-01-11 05:42:00,
2013-01-10 22:12:00,21.0,12.0,-100.00,NNE,19,20.0,24.0,67,0.00,,,0.00,0.000000,,2013-01-11 06:12:00,
2013-01-10 22:22:00,21.0,12.0,-100.00,NNE,19,20.0,24.0,67,0.00,,,0.00,0.000000,,2013-01-11 06:22:00,
2013-01-10 22:32:00,21.0,12.0,-100.00,NNE,19,20.0,24.0,67,0.00,,,0.00,0.000000,,2013-01-11 06:32:00,
2013-01-10 22:42:00,21.0,12.0,-100.00,NNE,19,20.0,24.0,67,0.00,,,0.00,0.000000,,2013-01-11 06:42:00,
2013-01-10 23:12:00,20.0,11.0,-100.00,NNE,16,19.0,24.0,66,0.00,,,0.00,0.000000,,2013-01-11 07:12:00,
2013-01-10 23:22:00,20.0,11.0,-100.00,NNE,16,19.0,24.0,66,0.00,,,0.00,0.000000,,2013-01-11 07:22:00,
2013-01-10 23:32:00,20.0,11.0,-100.00,NNE,16,19.0,24.0,66,0.00,,,0.00,0.000000,,2013-01-11 07:32:00,
2013-01-10 23:42:00,20.0,11.0,-100.00,NNE,16,19.0,24.0,66,0.00,,,0.00,0.000000,,2013-01-11 07:42:00,